Our Location

Trim Flying Club is based at Weston Airport (EIWT).

Address

Dublin Weston Airport,
Backweston,
Leixlip,
County Kildare

Contact information for Weston

Phone: +353 (01) 6217300
Email: ops@westonairport.com
 
You can read more information on Weston from the IAA's aeronautical information package here.
  • Casement Aerodrome METER/TAF

    Casement Aerodrome is just south of Weston and has a regularly updated METAR and TAF which you can find below.

    Available data for EIME from the past 2 hours
    CASEMENT (MIL)
    Metar
    EIME 022200Z 06004KT 030V100 3000 -DZ OVC002 06/06 Q0987

    22:00 UTC

    Wind: 60° 4kt

    Visibility: 3000 m

    Sky: OVC 200 ft

    Temp: 6 deg C / 42.8 deg F

    Dewpoint: 6 deg C / 42.8 deg F

    Pressure: 987 hPa

    TAF
    TAF EIME 022000Z 0221/0306 VRB03KT 3000 -RA OVC004 TEMPO 0221/0306 1500 BKN002 PROB40 TEMPO 0300/0306 0400 FG -RADZ BKN001